sensor_id;sensor_type;location;lat;lon;timestamp;temperature;humidity
26541;DHT22;14206;50.202;10.948;2022-11-15T00:00:49;6.80;96.60
26541;DHT22;14206;50.202;10.948;2022-11-15T00:03:35;6.80;96.60
26541;DHT22;14206;50.202;10.948;2022-11-15T00:06:20;6.80;96.60
26541;DHT22;14206;50.202;10.948;2022-11-15T00:09:06;6.90;96.60
26541;DHT22;14206;50.202;10.948;2022-11-15T00:11:52;6.90;96.60
26541;DHT22;14206;50.202;10.948;2022-11-15T00:14:37;7.00;96.60
26541;DHT22;14206;50.202;10.948;2022-11-15T00:17:22;7.00;96.60
26541;DHT22;14206;50.202;10.948;2022-11-15T00:20:08;7.00;96.60
26541;DHT22;14206;50.202;10.948;2022-11-15T00:22:54;7.00;96.60
26541;DHT22;14206;50.202;10.948;2022-11-15T00:25:39;6.90;96.60
26541;DHT22;14206;50.202;10.948;2022-11-15T00:28:25;6.90;96.60
26541;DHT22;14206;50.202;10.948;2022-11-15T00:31:13;7.00;96.60
26541;DHT22;14206;50.202;10.948;2022-11-15T00:33:58;6.90;96.60
26541;DHT22;14206;50.202;10.948;2022-11-15T00:36:43;6.90;96.60
26541;DHT22;14206;50.202;10.948;2022-11-15T00:39:29;6.90;96.60
26541;DHT22;14206;50.202;10.948;2022-11-15T00:42:14;6.90;96.60
26541;DHT22;14206;50.202;10.948;2022-11-15T00:45:00;6.80;96.60
26541;DHT22;14206;50.202;10.948;2022-11-15T00:47:46;6.80;96.60
26541;DHT22;14206;50.202;10.948;2022-11-15T00:50:31;6.80;96.60
26541;DHT22;14206;50.202;10.948;2022-11-15T00:53:17;6.80;96.60
26541;DHT22;14206;50.202;10.948;2022-11-15T00:56:03;6.70;96.60
26541;DHT22;14206;50.202;10.948;2022-11-15T00:58:48;6.70;96.60
26541;DHT22;14206;50.202;10.948;2022-11-15T01:01:34;6.70;96.60
26541;DHT22;14206;50.202;10.948;2022-11-15T01:04:19;6.60;96.60
26541;DHT22;14206;50.202;10.948;2022-11-15T01:07:04;6.60;96.60
26541;DHT22;14206;50.202;10.948;2022-11-15T01:09:50;6.60;96.60
26541;DHT22;14206;50.202;10.948;2022-11-15T01:12:36;6.60;96.60
26541;DHT22;14206;50.202;10.948;2022-11-15T01:15:21;6.60;96.60
26541;DHT22;14206;50.202;10.948;2022-11-15T01:18:07;6.60;96.60
26541;DHT22;14206;50.202;10.948;2022-11-15T01:20:53;6.60;96.60
26541;DHT22;14206;50.202;10.948;2022-11-15T01:23:42;6.70;96.60
26541;DHT22;14206;50.202;10.948;2022-11-15T01:26:28;6.80;96.60
26541;DHT22;14206;50.202;10.948;2022-11-15T01:29:14;6.90;96.60
26541;DHT22;14206;50.202;10.948;2022-11-15T01:32:00;6.90;96.60
26541;DHT22;14206;50.202;10.948;2022-11-15T01:34:45;6.90;96.60
26541;DHT22;14206;50.202;10.948;2022-11-15T01:37:30;6.90;96.60
26541;DHT22;14206;50.202;10.948;2022-11-15T01:40:16;6.90;96.60
26541;DHT22;14206;50.202;10.948;2022-11-15T01:43:26;6.90;96.60
26541;DHT22;14206;50.202;10.948;2022-11-15T01:49:16;7.00;96.60
26541;DHT22;14206;50.202;10.948;2022-11-15T01:52:18;7.00;96.60
26541;DHT22;14206;50.202;10.948;2022-11-15T01:55:35;7.10;96.60
26541;DHT22;14206;50.202;10.948;2022-11-15T01:58:21;7.20;96.60
26541;DHT22;14206;50.202;10.948;2022-11-15T02:01:07;7.30;96.60
26541;DHT22;14206;50.202;10.948;2022-11-15T02:04:09;7.40;96.60
26541;DHT22;14206;50.202;10.948;2022-11-15T02:06:56;7.50;96.60
26541;DHT22;14206;50.202;10.948;2022-11-15T02:09:43;7.60;96.60
26541;DHT22;14206;50.202;10.948;2022-11-15T02:12:29;7.60;96.60
26541;DHT22;14206;50.202;10.948;2022-11-15T02:15:17;7.70;96.60
26541;DHT22;14206;50.202;10.948;2022-11-15T02:18:26;7.80;96.60
26541;DHT22;14206;50.202;10.948;2022-11-15T02:21:17;7.90;96.60
26541;DHT22;14206;50.202;10.948;2022-11-15T02:24:33;8.00;96.60
26541;DHT22;14206;50.202;10.948;2022-11-15T02:30:49;8.10;96.60
26541;DHT22;14206;50.202;10.948;2022-11-15T02:34:19;8.20;96.60
26541;DHT22;14206;50.202;10.948;2022-11-15T02:40:23;8.20;96.60
26541;DHT22;14206;50.202;10.948;2022-11-15T02:43:15;8.30;96.60
26541;DHT22;14206;50.202;10.948;2022-11-15T02:46:40;8.40;96.60
26541;DHT22;14206;50.202;10.948;2022-11-15T02:49:52;8.50;96.60
26541;DHT22;14206;50.202;10.948;2022-11-15T02:52:38;8.50;96.60
26541;DHT22;14206;50.202;10.948;2022-11-15T02:55:36;8.50;96.60
26541;DHT22;14206;50.202;10.948;2022-11-15T03:04:55;8.70;96.60
26541;DHT22;14206;50.202;10.948;2022-11-15T03:08:05;8.70;96.60
26541;DHT22;14206;50.202;10.948;2022-11-15T03:13:54;8.80;96.60
26541;DHT22;14206;50.202;10.948;2022-11-15T03:22:27;8.90;96.60
26541;DHT22;14206;50.202;10.948;2022-11-15T03:25:19;8.80;96.60
26541;DHT22;14206;50.202;10.948;2022-11-15T03:28:07;8.80;96.60
26541;DHT22;14206;50.202;10.948;2022-11-15T03:30:55;8.60;96.60
26541;DHT22;14206;50.202;10.948;2022-11-15T03:33:42;8.50;96.50
26541;DHT22;14206;50.202;10.948;2022-11-15T03:36:29;8.40;96.50
26541;DHT22;14206;50.202;10.948;2022-11-15T03:39:17;8.30;96.30
26541;DHT22;14206;50.202;10.948;2022-11-15T03:45:19;8.10;96.20
26541;DHT22;14206;50.202;10.948;2022-11-15T03:48:20;7.90;96.60
26541;DHT22;14206;50.202;10.948;2022-11-15T03:51:06;7.80;96.60
26541;DHT22;14206;50.202;10.948;2022-11-15T03:53:51;7.60;96.60
26541;DHT22;14206;50.202;10.948;2022-11-15T03:56:37;7.50;96.60
26541;DHT22;14206;50.202;10.948;2022-11-15T03:59:22;7.30;96.60
26541;DHT22;14206;50.202;10.948;2022-11-15T04:02:08;7.30;96.60
26541;DHT22;14206;50.202;10.948;2022-11-15T04:04:53;7.10;96.60
26541;DHT22;14206;50.202;10.948;2022-11-15T04:07:38;7.00;96.60
26541;DHT22;14206;50.202;10.948;2022-11-15T04:10:24;7.00;96.60
26541;DHT22;14206;50.202;10.948;2022-11-15T04:13:09;6.80;96.60
26541;DHT22;14206;50.202;10.948;2022-11-15T04:15:55;6.80;96.60
26541;DHT22;14206;50.202;10.948;2022-11-15T04:18:40;6.80;96.60
26541;DHT22;14206;50.202;10.948;2022-11-15T04:21:26;6.90;96.60
26541;DHT22;14206;50.202;10.948;2022-11-15T04:24:29;7.00;96.60
26541;DHT22;14206;50.202;10.948;2022-11-15T04:27:15;7.00;96.60
26541;DHT22;14206;50.202;10.948;2022-11-15T04:30:01;7.00;96.60
26541;DHT22;14206;50.202;10.948;2022-11-15T04:32:46;6.90;96.60
26541;DHT22;14206;50.202;10.948;2022-11-15T04:35:31;6.90;96.60
26541;DHT22;14206;50.202;10.948;2022-11-15T04:38:17;6.80;96.60
26541;DHT22;14206;50.202;10.948;2022-11-15T04:41:03;6.80;96.60
26541;DHT22;14206;50.202;10.948;2022-11-15T04:43:48;6.80;96.60
26541;DHT22;14206;50.202;10.948;2022-11-15T04:46:34;6.70;96.60
26541;DHT22;14206;50.202;10.948;2022-11-15T04:49:19;6.60;96.60
26541;DHT22;14206;50.202;10.948;2022-11-15T04:52:05;6.60;96.60
26541;DHT22;14206;50.202;10.948;2022-11-15T04:54:50;6.50;96.60
26541;DHT22;14206;50.202;10.948;2022-11-15T04:57:37;6.50;96.60
26541;DHT22;14206;50.202;10.948;2022-11-15T05:00:22;6.40;96.60
26541;DHT22;14206;50.202;10.948;2022-11-15T05:03:09;6.40;96.60
26541;DHT22;14206;50.202;10.948;2022-11-15T05:06:14;6.30;96.60
26541;DHT22;14206;50.202;10.948;2022-11-15T05:08:59;6.30;96.60
26541;DHT22;14206;50.202;10.948;2022-11-15T05:11:45;6.20;96.60
26541;DHT22;14206;50.202;10.948;2022-11-15T05:14:30;6.20;96.60
26541;DHT22;14206;50.202;10.948;2022-11-15T05:17:16;6.20;96.60
26541;DHT22;14206;50.202;10.948;2022-11-15T05:20:02;6.10;96.60
26541;DHT22;14206;50.202;10.948;2022-11-15T05:22:47;6.10;96.60
26541;DHT22;14206;50.202;10.948;2022-11-15T05:25:33;6.10;96.60
26541;DHT22;14206;50.202;10.948;2022-11-15T05:28:18;6.10;96.60
26541;DHT22;14206;50.202;10.948;2022-11-15T05:31:06;6.10;96.60
26541;DHT22;14206;50.202;10.948;2022-11-15T05:33:52;6.10;96.60
26541;DHT22;14206;50.202;10.948;2022-11-15T05:36:41;6.10;96.60
26541;DHT22;14206;50.202;10.948;2022-11-15T05:39:27;6.10;96.60
26541;DHT22;14206;50.202;10.948;2022-11-15T05:42:14;6.10;96.60
26541;DHT22;14206;50.202;10.948;2022-11-15T05:45:01;6.20;96.60
26541;DHT22;14206;50.202;10.948;2022-11-15T05:47:47;6.20;96.60
26541;DHT22;14206;50.202;10.948;2022-11-15T05:50:36;6.10;96.60
26541;DHT22;14206;50.202;10.948;2022-11-15T05:53:23;6.10;96.60
26541;DHT22;14206;50.202;10.948;2022-11-15T05:56:10;6.10;96.60
26541;DHT22;14206;50.202;10.948;2022-11-15T05:58:56;6.00;96.60
26541;DHT22;14206;50.202;10.948;2022-11-15T06:01:44;5.90;96.60
26541;DHT22;14206;50.202;10.948;2022-11-15T06:04:30;5.90;96.60
26541;DHT22;14206;50.202;10.948;2022-11-15T06:07:16;5.80;96.60
26541;DHT22;14206;50.202;10.948;2022-11-15T06:10:01;5.80;96.60
26541;DHT22;14206;50.202;10.948;2022-11-15T06:12:46;5.70;96.60
26541;DHT22;14206;50.202;10.948;2022-11-15T06:15:33;5.70;96.60
26541;DHT22;14206;50.202;10.948;2022-11-15T06:18:21;5.60;96.60
26541;DHT22;14206;50.202;10.948;2022-11-15T06:21:06;5.60;96.60
26541;DHT22;14206;50.202;10.948;2022-11-15T06:23:52;5.60;96.60
26541;DHT22;14206;50.202;10.948;2022-11-15T06:26:37;5.60;96.60
26541;DHT22;14206;50.202;10.948;2022-11-15T06:29:23;5.60;96.60
26541;DHT22;14206;50.202;10.948;2022-11-15T06:32:09;5.60;96.60
26541;DHT22;14206;50.202;10.948;2022-11-15T06:34:54;5.60;96.60
26541;DHT22;14206;50.202;10.948;2022-11-15T06:37:40;5.60;96.60
26541;DHT22;14206;50.202;10.948;2022-11-15T06:40:26;5.70;96.60
26541;DHT22;14206;50.202;10.948;2022-11-15T06:43:11;5.70;96.60
26541;DHT22;14206;50.202;10.948;2022-11-15T06:46:01;5.70;96.60
26541;DHT22;14206;50.202;10.948;2022-11-15T06:48:47;5.70;96.60
26541;DHT22;14206;50.202;10.948;2022-11-15T06:51:34;5.80;96.60
26541;DHT22;14206;50.202;10.948;2022-11-15T06:54:19;5.80;96.60
26541;DHT22;14206;50.202;10.948;2022-11-15T06:57:06;5.90;96.60
26541;DHT22;14206;50.202;10.948;2022-11-15T06:59:51;5.90;96.60
26541;DHT22;14206;50.202;10.948;2022-11-15T07:02:37;6.00;96.60
26541;DHT22;14206;50.202;10.948;2022-11-15T07:05:22;6.00;96.60
26541;DHT22;14206;50.202;10.948;2022-11-15T07:08:08;6.10;96.60
26541;DHT22;14206;50.202;10.948;2022-11-15T07:10:58;6.20;96.60
26541;DHT22;14206;50.202;10.948;2022-11-15T07:13:45;6.30;96.60
26541;DHT22;14206;50.202;10.948;2022-11-15T07:16:30;6.50;96.60
26541;DHT22;14206;50.202;10.948;2022-11-15T07:19:15;6.60;96.60
26541;DHT22;14206;50.202;10.948;2022-11-15T07:22:01;6.70;96.60
26541;DHT22;14206;50.202;10.948;2022-11-15T07:24:46;7.00;96.60
26541;DHT22;14206;50.202;10.948;2022-11-15T07:27:32;7.30;96.60
26541;DHT22;14206;50.202;10.948;2022-11-15T07:30:18;7.60;96.60
26541;DHT22;14206;50.202;10.948;2022-11-15T07:33:04;8.00;96.60
26541;DHT22;14206;50.202;10.948;2022-11-15T07:35:49;8.30;96.60
26541;DHT22;14206;50.202;10.948;2022-11-15T07:38:35;8.60;96.10
26541;DHT22;14206;50.202;10.948;2022-11-15T07:41:27;9.20;95.20
26541;DHT22;14206;50.202;10.948;2022-11-15T07:44:12;10.00;93.00
26541;DHT22;14206;50.202;10.948;2022-11-15T07:46:58;10.90;90.30
26541;DHT22;14206;50.202;10.948;2022-11-15T07:49:43;11.70;86.40
26541;DHT22;14206;50.202;10.948;2022-11-15T07:52:29;12.50;86.00
26541;DHT22;14206;50.202;10.948;2022-11-15T07:55:14;13.50;84.10
26541;DHT22;14206;50.202;10.948;2022-11-15T07:58:05;14.30;81.00
26541;DHT22;14206;50.202;10.948;2022-11-15T08:00:50;14.90;78.70
26541;DHT22;14206;50.202;10.948;2022-11-15T08:03:35;15.30;77.70
26541;DHT22;14206;50.202;10.948;2022-11-15T08:06:21;15.60;73.90
26541;DHT22;14206;50.202;10.948;2022-11-15T08:09:06;15.50;75.50
26541;DHT22;14206;50.202;10.948;2022-11-15T08:11:52;15.40;75.50
26541;DHT22;14206;50.202;10.948;2022-11-15T08:14:37;15.20;75.50
26541;DHT22;14206;50.202;10.948;2022-11-15T08:17:24;15.20;75.50
26541;DHT22;14206;50.202;10.948;2022-11-15T08:20:10;15.30;74.90
26541;DHT22;14206;50.202;10.948;2022-11-15T08:23:01;15.70;75.20
26541;DHT22;14206;50.202;10.948;2022-11-15T08:25:47;16.40;74.20
26541;DHT22;14206;50.202;10.948;2022-11-15T08:28:32;17.00;72.40
26541;DHT22;14206;50.202;10.948;2022-11-15T08:31:18;17.40;70.90
26541;DHT22;14206;50.202;10.948;2022-11-15T08:34:04;17.60;69.60
26541;DHT22;14206;50.202;10.948;2022-11-15T08:36:50;17.60;69.70
26541;DHT22;14206;50.202;10.948;2022-11-15T08:39:36;17.60;70.40
26541;DHT22;14206;50.202;10.948;2022-11-15T08:42:23;17.60;69.70
26541;DHT22;14206;50.202;10.948;2022-11-15T08:45:09;17.60;68.50
26541;DHT22;14206;50.202;10.948;2022-11-15T08:47:55;17.10;68.20
26541;DHT22;14206;50.202;10.948;2022-11-15T08:50:40;16.70;69.70
26541;DHT22;14206;50.202;10.948;2022-11-15T08:53:26;16.40;69.50
26541;DHT22;14206;50.202;10.948;2022-11-15T08:56:14;15.90;70.40
26541;DHT22;14206;50.202;10.948;2022-11-15T08:58:59;15.60;71.60
26541;DHT22;14206;50.202;10.948;2022-11-15T09:01:45;15.40;72.30
26541;DHT22;14206;50.202;10.948;2022-11-15T09:04:31;15.20;72.10
26541;DHT22;14206;50.202;10.948;2022-11-15T09:07:17;14.80;73.10
26541;DHT22;14206;50.202;10.948;2022-11-15T09:10:03;14.60;73.50
26541;DHT22;14206;50.202;10.948;2022-11-15T09:12:49;14.40;74.10
26541;DHT22;14206;50.202;10.948;2022-11-15T09:15:35;14.20;75.00
26541;DHT22;14206;50.202;10.948;2022-11-15T09:18:21;14.20;76.60
26541;DHT22;14206;50.202;10.948;2022-11-15T09:21:08;14.20;76.90
26541;DHT22;14206;50.202;10.948;2022-11-15T09:23:54;14.20;76.60
26541;DHT22;14206;50.202;10.948;2022-11-15T09:26:40;14.20;77.10
26541;DHT22;14206;50.202;10.948;2022-11-15T09:29:26;14.10;77.10
26541;DHT22;14206;50.202;10.948;2022-11-15T09:32:11;14.10;77.20
26541;DHT22;14206;50.202;10.948;2022-11-15T09:34:57;14.00;77.20
26541;DHT22;14206;50.202;10.948;2022-11-15T09:37:42;13.90;77.10
26541;DHT22;14206;50.202;10.948;2022-11-15T09:40:31;14.00;76.70
26541;DHT22;14206;50.202;10.948;2022-11-15T09:43:25;14.00;77.50
26541;DHT22;14206;50.202;10.948;2022-11-15T09:46:33;14.20;77.30
26541;DHT22;14206;50.202;10.948;2022-11-15T09:49:31;14.50;77.10
26541;DHT22;14206;50.202;10.948;2022-11-15T09:52:17;15.00;75.90
26541;DHT22;14206;50.202;10.948;2022-11-15T09:54:48;15.90;75.10
26541;DHT22;14206;50.202;10.948;2022-11-15T09:57:48;16.80;73.10
26541;DHT22;14206;50.202;10.948;2022-11-15T10:00:33;17.80;70.00
26541;DHT22;14206;50.202;10.948;2022-11-15T10:03:23;18.90;68.70
26541;DHT22;14206;50.202;10.948;2022-11-15T10:05:52;19.90;66.40
26541;DHT22;14206;50.202;10.948;2022-11-15T10:08:28;20.70;61.70
26541;DHT22;14206;50.202;10.948;2022-11-15T10:11:01;21.30;63.10
26541;DHT22;14206;50.202;10.948;2022-11-15T10:13:50;21.50;60.20
26541;DHT22;14206;50.202;10.948;2022-11-15T10:19:28;22.60;56.00
26541;DHT22;14206;50.202;10.948;2022-11-15T10:24:48;23.30;56.70
26541;DHT22;14206;50.202;10.948;2022-11-15T10:27:18;23.70;56.20
26541;DHT22;14206;50.202;10.948;2022-11-15T10:29:50;23.90;54.90
26541;DHT22;14206;50.202;10.948;2022-11-15T10:32:20;23.50;55.80
26541;DHT22;14206;50.202;10.948;2022-11-15T10:34:49;22.80;55.90
26541;DHT22;14206;50.202;10.948;2022-11-15T10:37:30;21.90;56.50
26541;DHT22;14206;50.202;10.948;2022-11-15T10:40:16;21.10;58.10
26541;DHT22;14206;50.202;10.948;2022-11-15T10:42:43;20.20;59.30
26541;DHT22;14206;50.202;10.948;2022-11-15T10:45:25;19.70;60.70
26541;DHT22;14206;50.202;10.948;2022-11-15T10:47:52;19.30;62.10
26541;DHT22;14206;50.202;10.948;2022-11-15T10:50:30;18.90;63.40
26541;DHT22;14206;50.202;10.948;2022-11-15T10:52:58;18.50;64.50
26541;DHT22;14206;50.202;10.948;2022-11-15T10:55:30;18.20;64.80
26541;DHT22;14206;50.202;10.948;2022-11-15T10:58:05;17.90;65.80
26541;DHT22;14206;50.202;10.948;2022-11-15T11:00:37;17.50;66.60
26541;DHT22;14206;50.202;10.948;2022-11-15T11:03:26;17.30;67.80
26541;DHT22;14206;50.202;10.948;2022-11-15T11:06:12;17.00;67.70
26541;DHT22;14206;50.202;10.948;2022-11-15T11:08:40;16.80;68.80
26541;DHT22;14206;50.202;10.948;2022-11-15T11:11:07;16.60;69.20
26541;DHT22;14206;50.202;10.948;2022-11-15T11:13:39;16.50;70.10
26541;DHT22;14206;50.202;10.948;2022-11-15T11:19:04;16.20;70.90
26541;DHT22;14206;50.202;10.948;2022-11-15T11:29:45;15.90;71.70
26541;DHT22;14206;50.202;10.948;2022-11-15T11:35:11;15.70;72.20
26541;DHT22;14206;50.202;10.948;2022-11-15T11:37:58;15.70;70.90
26541;DHT22;14206;50.202;10.948;2022-11-15T11:43:41;15.70;72.10
26541;DHT22;14206;50.202;10.948;2022-11-15T11:49:21;15.90;71.00
26541;DHT22;14206;50.202;10.948;2022-11-15T11:51:53;15.90;71.30
26541;DHT22;14206;50.202;10.948;2022-11-15T11:57:09;15.80;70.60
26541;DHT22;14206;50.202;10.948;2022-11-15T12:00:03;15.70;70.90
26541;DHT22;14206;50.202;10.948;2022-11-15T12:03:00;15.70;71.50
26541;DHT22;14206;50.202;10.948;2022-11-15T12:11:13;15.60;69.60
26541;DHT22;14206;50.202;10.948;2022-11-15T12:13:42;15.60;70.60
26541;DHT22;14206;50.202;10.948;2022-11-15T12:16:17;15.70;69.70
26541;DHT22;14206;50.202;10.948;2022-11-15T12:18:50;15.70;68.50
26541;DHT22;14206;50.202;10.948;2022-11-15T12:21:34;15.70;68.70
26541;DHT22;14206;50.202;10.948;2022-11-15T12:24:11;15.70;68.80
26541;DHT22;14206;50.202;10.948;2022-11-15T12:26:49;15.70;68.40
26541;DHT22;14206;50.202;10.948;2022-11-15T12:32:01;15.60;68.50
26541;DHT22;14206;50.202;10.948;2022-11-15T12:34:38;15.70;69.40
26541;DHT22;14206;50.202;10.948;2022-11-15T12:42:44;15.90;69.70
26541;DHT22;14206;50.202;10.948;2022-11-15T12:58:52;16.50;68.00
26541;DHT22;14206;50.202;10.948;2022-11-15T13:04:25;16.60;67.80
26541;DHT22;14206;50.202;10.948;2022-11-15T13:12:09;16.50;69.20
26541;DHT22;14206;50.202;10.948;2022-11-15T13:19:49;16.30;70.00
26541;DHT22;14206;50.202;10.948;2022-11-15T13:22:19;16.30;70.10
26541;DHT22;14206;50.202;10.948;2022-11-15T13:25:18;16.20;69.70
26541;DHT22;14206;50.202;10.948;2022-11-15T13:27:47;16.10;69.80
26541;DHT22;14206;50.202;10.948;2022-11-15T13:30:23;16.00;70.30
26541;DHT22;14206;50.202;10.948;2022-11-15T13:32:51;15.80;70.10
26541;DHT22;14206;50.202;10.948;2022-11-15T13:35:23;15.70;70.00
26541;DHT22;14206;50.202;10.948;2022-11-15T13:37:52;15.70;69.80
26541;DHT22;14206;50.202;10.948;2022-11-15T13:42:54;15.50;70.70
26541;DHT22;14206;50.202;10.948;2022-11-15T13:45:21;15.40;71.30
26541;DHT22;14206;50.202;10.948;2022-11-15T13:47:56;15.40;72.20
26541;DHT22;14206;50.202;10.948;2022-11-15T13:50:27;15.30;73.20
26541;DHT22;14206;50.202;10.948;2022-11-15T13:52:58;15.30;73.90
26541;DHT22;14206;50.202;10.948;2022-11-15T13:55:26;15.30;74.40
26541;DHT22;14206;50.202;10.948;2022-11-15T13:57:58;15.20;74.80
26541;DHT22;14206;50.202;10.948;2022-11-15T14:02:54;15.10;75.70
26541;DHT22;14206;50.202;10.948;2022-11-15T14:05:24;15.00;75.90
26541;DHT22;14206;50.202;10.948;2022-11-15T14:08:01;15.00;76.30
26541;DHT22;14206;50.202;10.948;2022-11-15T14:10:34;15.00;76.70
26541;DHT22;14206;50.202;10.948;2022-11-15T14:13:04;15.00;76.90
26541;DHT22;14206;50.202;10.948;2022-11-15T14:15:34;15.00;76.70
26541;DHT22;14206;50.202;10.948;2022-11-15T14:18:01;14.90;77.10
26541;DHT22;14206;50.202;10.948;2022-11-15T14:23:02;14.80;77.40
26541;DHT22;14206;50.202;10.948;2022-11-15T14:25:31;14.80;77.50
26541;DHT22;14206;50.202;10.948;2022-11-15T14:30:45;14.70;77.90
26541;DHT22;14206;50.202;10.948;2022-11-15T14:33:36;14.60;78.20
26541;DHT22;14206;50.202;10.948;2022-11-15T14:36:10;14.60;79.20
26541;DHT22;14206;50.202;10.948;2022-11-15T14:38:37;14.60;78.80
26541;DHT22;14206;50.202;10.948;2022-11-15T14:41:04;14.50;80.20
26541;DHT22;14206;50.202;10.948;2022-11-15T14:43:31;14.40;81.20
26541;DHT22;14206;50.202;10.948;2022-11-15T14:45:58;14.30;81.60
26541;DHT22;14206;50.202;10.948;2022-11-15T14:48:25;14.20;82.30
26541;DHT22;14206;50.202;10.948;2022-11-15T14:50:52;14.10;83.00
26541;DHT22;14206;50.202;10.948;2022-11-15T14:53:19;14.00;83.60
26541;DHT22;14206;50.202;10.948;2022-11-15T14:55:46;14.00;83.70
26541;DHT22;14206;50.202;10.948;2022-11-15T14:58:13;14.00;84.30
26541;DHT22;14206;50.202;10.948;2022-11-15T15:00:41;13.90;84.40
26541;DHT22;14206;50.202;10.948;2022-11-15T15:03:08;13.90;83.60
26541;DHT22;14206;50.202;10.948;2022-11-15T15:05:43;13.80;83.20
26541;DHT22;14206;50.202;10.948;2022-11-15T15:08:10;13.70;82.80
26541;DHT22;14206;50.202;10.948;2022-11-15T15:10:41;13.70;83.20
26541;DHT22;14206;50.202;10.948;2022-11-15T15:13:20;13.60;83.90
26541;DHT22;14206;50.202;10.948;2022-11-15T15:15:48;13.60;84.10
26541;DHT22;14206;50.202;10.948;2022-11-15T15:18:16;13.50;84.30
26541;DHT22;14206;50.202;10.948;2022-11-15T15:20:44;13.50;84.30
26541;DHT22;14206;50.202;10.948;2022-11-15T15:23:16;13.50;84.40
26541;DHT22;14206;50.202;10.948;2022-11-15T15:25:44;13.40;84.30
26541;DHT22;14206;50.202;10.948;2022-11-15T15:28:13;13.30;84.70
26541;DHT22;14206;50.202;10.948;2022-11-15T15:30:40;13.30;84.70
26541;DHT22;14206;50.202;10.948;2022-11-15T15:33:07;13.20;84.50
26541;DHT22;14206;50.202;10.948;2022-11-15T15:35:34;13.10;84.70
26541;DHT22;14206;50.202;10.948;2022-11-15T15:38:02;13.10;84.70
26541;DHT22;14206;50.202;10.948;2022-11-15T15:40:31;13.00;84.90
26541;DHT22;14206;50.202;10.948;2022-11-15T15:42:58;13.00;85.00
26541;DHT22;14206;50.202;10.948;2022-11-15T15:45:26;12.90;85.50
26541;DHT22;14206;50.202;10.948;2022-11-15T15:47:54;12.90;85.80
26541;DHT22;14206;50.202;10.948;2022-11-15T15:50:27;12.80;85.90
26541;DHT22;14206;50.202;10.948;2022-11-15T15:52:56;12.80;85.80
26541;DHT22;14206;50.202;10.948;2022-11-15T15:55:24;12.70;86.10
26541;DHT22;14206;50.202;10.948;2022-11-15T15:57:51;12.70;86.70
26541;DHT22;14206;50.202;10.948;2022-11-15T16:00:19;12.70;86.40
26541;DHT22;14206;50.202;10.948;2022-11-15T16:02:46;12.70;86.30
26541;DHT22;14206;50.202;10.948;2022-11-15T16:05:13;12.60;87.10
26541;DHT22;14206;50.202;10.948;2022-11-15T16:07:41;12.50;86.90
26541;DHT22;14206;50.202;10.948;2022-11-15T16:12:48;12.30;87.10
26541;DHT22;14206;50.202;10.948;2022-11-15T16:15:15;12.30;87.40
26541;DHT22;14206;50.202;10.948;2022-11-15T16:17:59;12.20;87.80
26541;DHT22;14206;50.202;10.948;2022-11-15T16:23:04;12.10;88.00
26541;DHT22;14206;50.202;10.948;2022-11-15T16:28:07;12.00;88.30
26541;DHT22;14206;50.202;10.948;2022-11-15T16:30:38;12.00;88.10
26541;DHT22;14206;50.202;10.948;2022-11-15T16:33:05;12.10;87.90
26541;DHT22;14206;50.202;10.948;2022-11-15T16:35:32;12.00;87.90
26541;DHT22;14206;50.202;10.948;2022-11-15T16:37:59;12.00;88.00
26541;DHT22;14206;50.202;10.948;2022-11-15T16:40:31;11.90;88.00
26541;DHT22;14206;50.202;10.948;2022-11-15T16:42:58;11.90;88.00
26541;DHT22;14206;50.202;10.948;2022-11-15T16:45:26;11.80;88.30
26541;DHT22;14206;50.202;10.948;2022-11-15T16:47:55;11.80;88.40
26541;DHT22;14206;50.202;10.948;2022-11-15T16:50:27;11.80;88.50
26541;DHT22;14206;50.202;10.948;2022-11-15T16:52:56;11.80;88.40
26541;DHT22;14206;50.202;10.948;2022-11-15T16:55:26;11.70;88.70
26541;DHT22;14206;50.202;10.948;2022-11-15T16:57:54;11.70;89.00
26541;DHT22;14206;50.202;10.948;2022-11-15T17:00:24;11.70;89.10
26541;DHT22;14206;50.202;10.948;2022-11-15T17:02:52;11.70;89.60
26541;DHT22;14206;50.202;10.948;2022-11-15T17:05:21;11.60;89.10
26541;DHT22;14206;50.202;10.948;2022-11-15T17:07:50;11.60;89.20
26541;DHT22;14206;50.202;10.948;2022-11-15T17:10:21;11.60;89.70
26541;DHT22;14206;50.202;10.948;2022-11-15T17:12:49;11.50;89.80
26541;DHT22;14206;50.202;10.948;2022-11-15T17:15:17;11.50;90.30
26541;DHT22;14206;50.202;10.948;2022-11-15T17:17:44;11.50;90.40
26541;DHT22;14206;50.202;10.948;2022-11-15T17:20:17;11.40;90.30
26541;DHT22;14206;50.202;10.948;2022-11-15T17:22:44;11.40;90.20
26541;DHT22;14206;50.202;10.948;2022-11-15T17:25:13;11.30;90.10
26541;DHT22;14206;50.202;10.948;2022-11-15T17:27:40;11.20;90.50
26541;DHT22;14206;50.202;10.948;2022-11-15T17:30:09;11.20;90.60
26541;DHT22;14206;50.202;10.948;2022-11-15T17:32:37;11.10;90.60
26541;DHT22;14206;50.202;10.948;2022-11-15T17:35:05;11.10;90.80
26541;DHT22;14206;50.202;10.948;2022-11-15T17:37:40;11.10;90.90
26541;DHT22;14206;50.202;10.948;2022-11-15T17:40:08;11.10;90.90
26541;DHT22;14206;50.202;10.948;2022-11-15T17:42:34;11.10;91.00
26541;DHT22;14206;50.202;10.948;2022-11-15T17:45:01;11.10;90.90
26541;DHT22;14206;50.202;10.948;2022-11-15T17:47:35;11.10;90.80
26541;DHT22;14206;50.202;10.948;2022-11-15T17:50:02;11.10;91.00
26541;DHT22;14206;50.202;10.948;2022-11-15T17:52:29;11.10;90.90
26541;DHT22;14206;50.202;10.948;2022-11-15T17:54:56;11.10;91.10
26541;DHT22;14206;50.202;10.948;2022-11-15T17:57:23;11.10;91.00
26541;DHT22;14206;50.202;10.948;2022-11-15T17:59:50;11.10;91.20
26541;DHT22;14206;50.202;10.948;2022-11-15T18:02:17;11.10;91.20
26541;DHT22;14206;50.202;10.948;2022-11-15T18:04:45;11.10;91.00
26541;DHT22;14206;50.202;10.948;2022-11-15T18:07:11;11.10;91.20
26541;DHT22;14206;50.202;10.948;2022-11-15T18:09:40;11.10;91.40
26541;DHT22;14206;50.202;10.948;2022-11-15T18:12:10;11.10;91.10
26541;DHT22;14206;50.202;10.948;2022-11-15T18:14:37;11.10;91.30
26541;DHT22;14206;50.202;10.948;2022-11-15T18:17:05;11.10;91.40
26541;DHT22;14206;50.202;10.948;2022-11-15T18:19:32;11.10;91.90
26541;DHT22;14206;50.202;10.948;2022-11-15T18:21:59;11.10;91.60
26541;DHT22;14206;50.202;10.948;2022-11-15T18:24:35;11.10;91.50
26541;DHT22;14206;50.202;10.948;2022-11-15T18:27:04;11.10;91.50
26541;DHT22;14206;50.202;10.948;2022-11-15T18:29:32;11.10;91.00
26541;DHT22;14206;50.202;10.948;2022-11-15T18:32:00;11.20;91.20
26541;DHT22;14206;50.202;10.948;2022-11-15T18:34:30;11.20;91.20
26541;DHT22;14206;50.202;10.948;2022-11-15T18:37:00;11.20;91.30
26541;DHT22;14206;50.202;10.948;2022-11-15T18:39:28;11.20;90.90